createdAt,value
2018-03-14T00:01:04.404Z,28.93
2018-03-14T00:03:31.892Z,31.33
2018-03-14T00:05:59.399Z,28.13
2018-03-14T00:08:26.867Z,28.23
2018-03-14T00:10:54.393Z,27.90
2018-03-14T00:13:21.883Z,24.47
2018-03-14T00:15:49.378Z,30.63
2018-03-14T00:18:16.870Z,24.63
2018-03-14T00:20:44.395Z,23.00
2018-03-14T00:23:11.875Z,25.30
2018-03-14T00:25:39.379Z,22.13
2018-03-14T00:28:06.855Z,20.63
2018-03-14T00:30:34.365Z,20.60
2018-03-14T00:33:01.838Z,20.43
2018-03-14T00:35:29.342Z,18.37
2018-03-14T00:37:56.831Z,18.07
2018-03-14T00:40:24.379Z,21.20
2018-03-14T00:42:51.804Z,19.03
2018-03-14T00:45:19.308Z,15.80
2018-03-14T00:47:46.783Z,19.10
2018-03-14T00:50:14.280Z,17.67
2018-03-14T00:52:41.777Z,18.67
2018-03-14T00:55:09.296Z,15.73
2018-03-14T00:57:36.775Z,16.23
2018-03-14T01:00:04.256Z,14.57
2018-03-14T01:02:31.747Z,13.13
2018-03-14T01:04:59.332Z,14.10
2018-03-14T01:07:26.832Z,16.27
2018-03-14T01:09:54.321Z,13.43
2018-03-14T01:12:21.811Z,11.23
2018-03-14T01:14:49.288Z,11.33
2018-03-14T01:17:16.790Z,11.70
2018-03-14T01:19:44.276Z,13.03
2018-03-14T01:22:11.782Z,12.57
2018-03-14T01:24:39.272Z,11.30
2018-03-14T01:27:06.754Z,12.47
2018-03-14T01:29:34.236Z,12.73
2018-03-14T01:32:01.739Z,11.63
2018-03-14T01:34:29.268Z,12.63
2018-03-14T01:36:56.715Z,13.03
2018-03-14T01:39:24.205Z,14.07
2018-03-14T01:41:51.713Z,14.57
2018-03-14T01:44:19.219Z,13.43
2018-03-14T01:46:46.743Z,12.43
2018-03-14T01:49:14.219Z,12.00
2018-03-14T01:51:41.723Z,11.33
2018-03-14T01:54:09.202Z,14.63
2018-03-14T01:56:36.712Z,16.70
2018-03-14T01:59:04.193Z,15.47
2018-03-14T02:01:32.471Z,15.87
2018-03-14T02:03:59.956Z,14.23
2018-03-14T02:06:27.451Z,15.73
2018-03-14T02:08:54.942Z,15.47
2018-03-14T02:11:22.446Z,15.03
2018-03-14T02:13:49.950Z,16.73
2018-03-14T02:16:17.453Z,16.67
2018-03-14T02:18:44.939Z,15.17
2018-03-14T02:21:12.432Z,17.03
2018-03-14T02:23:39.930Z,18.20
2018-03-14T02:26:07.411Z,19.53
2018-03-14T02:28:34.926Z,18.00
2018-03-14T02:31:02.410Z,21.17
2018-03-14T02:33:30.139Z,17.60
2018-03-14T02:35:57.619Z,19.43
2018-03-14T02:38:25.119Z,19.73
2018-03-14T02:40:52.608Z,20.40
2018-03-14T02:43:20.111Z,22.20
2018-03-14T02:45:47.598Z,21.90
2018-03-14T02:48:15.410Z,25.27
2018-03-14T02:50:42.871Z,21.33
2018-03-14T02:53:10.365Z,26.30
2018-03-14T02:55:37.835Z,24.73
2018-03-14T02:58:05.319Z,22.33
2018-03-14T03:00:32.788Z,25.93
2018-03-14T03:03:00.270Z,25.47
2018-03-14T03:05:27.730Z,26.40
2018-03-14T03:07:55.208Z,27.30
2018-03-14T03:10:22.734Z,27.67
2018-03-14T03:12:50.239Z,30.87
2018-03-14T03:15:17.664Z,28.07
2018-03-14T03:17:45.140Z,28.73
2018-03-14T03:20:12.603Z,30.17
2018-03-14T03:22:40.078Z,32.43
2018-03-14T03:25:07.535Z,31.40
2018-03-14T03:27:35.025Z,33.53
2018-03-14T03:30:02.493Z,36.43
2018-03-14T03:32:29.987Z,31.47
2018-03-14T03:34:57.448Z,37.60
2018-03-14T03:37:24.930Z,33.13
2018-03-14T03:39:52.407Z,31.47
2018-03-14T03:42:19.935Z,27.60
2018-03-14T03:44:47.400Z,26.40
2018-03-14T03:47:14.873Z,29.63
2018-03-14T03:49:42.352Z,32.37
2018-03-14T03:52:09.821Z,31.60
2018-03-14T03:54:37.363Z,33.10
2018-03-14T03:57:04.830Z,33.33
2018-03-14T03:59:32.308Z,48.00
2018-03-14T04:01:59.791Z,45.77
2018-03-14T04:04:27.279Z,51.20
2018-03-14T04:06:54.741Z,41.63
2018-03-14T04:09:22.225Z,42.77
2018-03-14T04:11:49.695Z,41.30
2018-03-14T04:14:17.186Z,42.03
2018-03-14T04:16:44.655Z,40.67
2018-03-14T04:19:12.140Z,39.53
2018-03-14T04:21:39.611Z,41.90
2018-03-14T04:24:07.094Z,38.47
2018-03-14T04:26:34.551Z,38.07
2018-03-14T04:29:02.059Z,39.73
2018-03-14T04:31:29.575Z,36.13
2018-03-14T04:33:57.019Z,40.37
2018-03-14T04:36:24.499Z,36.20
2018-03-14T04:38:51.982Z,42.83
2018-03-14T04:41:19.485Z,34.77
2018-03-14T04:43:46.967Z,34.47
2018-03-14T04:46:14.434Z,38.27
2018-03-14T04:48:41.914Z,34.17
2018-03-14T04:51:09.371Z,42.93
2018-03-14T04:53:36.851Z,42.43
2018-03-14T04:56:04.311Z,47.50
2018-03-14T04:58:31.805Z,47.83
2018-03-14T05:00:59.575Z,40.33
2018-03-14T05:03:27.041Z,45.13
2018-03-14T05:05:54.539Z,44.50
2018-03-14T05:08:22.006Z,45.03
2018-03-14T05:10:49.496Z,48.10
2018-03-14T05:13:16.971Z,47.50
2018-03-14T05:15:44.455Z,48.47
2018-03-14T05:18:11.920Z,53.40
2018-03-14T05:20:39.399Z,55.27
2018-03-14T05:23:06.855Z,55.63
2018-03-14T05:25:34.331Z,59.43
2018-03-14T05:28:02.560Z,60.07
2018-03-14T05:30:30.047Z,64.27
2018-03-14T05:32:57.528Z,62.37
2018-03-14T05:35:25.006Z,69.33
2018-03-14T05:37:52.467Z,62.83
2018-03-14T05:40:19.975Z,63.83
2018-03-14T05:42:47.431Z,79.20
2018-03-14T05:45:14.919Z,65.03
2018-03-14T05:47:42.380Z,74.33
2018-03-14T05:50:09.885Z,81.63
2018-03-14T05:52:37.938Z,87.80
2018-03-14T05:55:05.418Z,84.60
2018-03-14T05:57:32.878Z,79.00
2018-03-14T06:00:00.357Z,83.50
2018-03-14T06:02:27.843Z,81.60
2018-03-14T06:04:55.343Z,98.63
2018-03-14T06:07:22.898Z,111.60
2018-03-14T06:09:50.385Z,111.60
2018-03-14T06:12:17.855Z,106.97
2018-03-14T06:14:45.610Z,114.37
2018-03-14T06:17:13.112Z,120.13
2018-03-14T06:19:40.642Z,115.80
2018-03-14T06:22:08.133Z,103.33
2018-03-14T06:24:35.612Z,99.43
2018-03-14T06:27:03.399Z,95.83
2018-03-14T06:29:30.861Z,94.40
2018-03-14T06:31:58.403Z,90.57
2018-03-14T06:34:25.865Z,93.20
2018-03-14T06:36:53.351Z,99.57
2018-03-14T06:39:20.817Z,94.83
2018-03-14T06:41:48.303Z,93.53
2018-03-14T06:44:15.770Z,84.80
2018-03-14T06:46:43.257Z,88.47
2018-03-14T06:49:10.721Z,102.67
2018-03-14T06:51:38.207Z,103.87
2018-03-14T06:54:05.672Z,96.20
2018-03-14T06:56:33.203Z,87.67
2018-03-14T06:59:12.576Z,84.60
2018-03-14T07:01:51.975Z,79.53
2018-03-14T07:04:31.267Z,71.80
2018-03-14T07:06:58.749Z,74.33
2018-03-14T07:09:26.211Z,64.37
2018-03-14T07:11:53.711Z,60.90
2018-03-14T07:14:21.182Z,60.40
2018-03-14T07:16:48.659Z,49.60
2018-03-14T07:19:16.115Z,59.73
2018-03-14T07:21:43.620Z,52.40
2018-03-14T07:24:11.083Z,53.23
2018-03-14T07:26:38.573Z,53.33
2018-03-14T07:29:06.069Z,53.40
2018-03-14T07:31:33.563Z,54.27
2018-03-14T07:34:01.034Z,50.83
2018-03-14T07:36:28.514Z,54.13
2018-03-14T07:38:55.987Z,53.20
2018-03-14T07:41:23.470Z,53.50
2018-03-14T07:43:50.962Z,54.13
2018-03-14T07:46:18.444Z,52.73
2018-03-14T07:48:45.914Z,54.17
2018-03-14T07:51:13.416Z,49.50
2018-03-14T07:53:40.901Z,52.20
2018-03-14T07:56:08.363Z,47.63
2018-03-14T07:58:35.863Z,48.07
2018-03-14T08:01:04.106Z,47.00
2018-03-14T08:03:38.133Z,48.73
2018-03-14T08:06:05.604Z,47.93
2018-03-14T08:08:33.096Z,43.10
2018-03-14T08:11:00.560Z,46.53
2018-03-14T08:13:28.084Z,45.10
2018-03-14T08:15:55.515Z,46.80
2018-03-14T08:18:23.005Z,42.07
2018-03-14T08:20:50.477Z,44.07
2018-03-14T08:23:17.954Z,37.57
2018-03-14T08:25:45.426Z,45.43
2018-03-14T08:28:12.904Z,37.67
2018-03-14T08:30:40.363Z,34.37
2018-03-14T08:33:07.873Z,33.60
2018-03-14T08:35:35.406Z,33.57
2018-03-14T08:38:02.891Z,35.10
2018-03-14T08:40:30.358Z,29.73
2018-03-14T08:42:57.854Z,34.13
2018-03-14T08:45:25.321Z,35.37
2018-03-14T08:47:52.804Z,32.87
2018-03-14T08:50:20.291Z,33.17
2018-03-14T08:52:47.766Z,31.37
2018-03-14T08:55:15.235Z,31.37
2018-03-14T08:57:42.727Z,33.13
2018-03-14T09:00:10.189Z,34.20
2018-03-14T09:02:37.691Z,29.73
2018-03-14T09:05:05.163Z,34.50
2018-03-14T09:07:32.650Z,37.70
2018-03-14T09:10:00.576Z,33.50
2018-03-14T09:12:28.035Z,35.63
2018-03-14T09:14:55.496Z,31.90
2018-03-14T09:17:22.990Z,32.77
2018-03-14T09:19:50.447Z,34.50
2018-03-14T09:22:17.907Z,33.80
2018-03-14T09:24:45.407Z,33.33
2018-03-14T09:27:12.876Z,29.50
2018-03-14T09:29:40.365Z,34.33
2018-03-14T09:32:07.822Z,35.53
2018-03-14T09:34:35.295Z,30.50
2018-03-14T09:37:02.792Z,29.77
2018-03-14T09:39:30.266Z,31.73
2018-03-14T09:41:57.729Z,26.83
2018-03-14T09:44:25.216Z,26.33
2018-03-14T09:46:52.675Z,24.63
2018-03-14T09:49:20.155Z,24.60
2018-03-14T09:51:47.644Z,29.13
2018-03-14T09:54:15.127Z,28.80
2018-03-14T09:56:42.587Z,29.80
2018-03-14T09:59:10.067Z,30.57
2018-03-14T10:01:37.579Z,27.47
2018-03-14T10:04:05.071Z,28.20
2018-03-14T10:06:32.535Z,30.40
2018-03-14T10:09:00.019Z,26.77
2018-03-14T10:11:27.580Z,31.53
2018-03-14T10:13:55.062Z,27.30
2018-03-14T10:16:22.519Z,24.60
2018-03-14T10:18:51.005Z,22.70
2018-03-14T10:21:18.480Z,26.40
2018-03-14T10:23:45.966Z,30.30
2018-03-14T10:26:13.451Z,27.80
2018-03-14T10:28:40.937Z,26.40
2018-03-14T10:31:08.426Z,27.50
2018-03-14T10:33:35.914Z,29.10
2018-03-14T10:36:03.384Z,26.47
2018-03-14T10:38:30.919Z,25.13
2018-03-14T10:40:58.383Z,28.70
2018-03-14T10:43:25.871Z,27.17
2018-03-14T10:45:53.327Z,22.60
2018-03-14T10:48:20.783Z,25.87
2018-03-14T10:50:48.274Z,25.53
2018-03-14T10:53:15.740Z,24.63
2018-03-14T10:55:43.219Z,24.70
2018-03-14T10:58:10.679Z,25.03
2018-03-14T11:00:43.628Z,22.00
2018-03-14T11:03:16.592Z,23.63
2018-03-14T11:05:44.079Z,25.03
2018-03-14T11:08:11.540Z,23.30
2018-03-14T11:10:39.028Z,22.17
2018-03-14T11:13:06.507Z,23.13
2018-03-14T11:15:34.014Z,22.20
2018-03-14T11:18:01.504Z,22.40
2018-03-14T11:20:28.994Z,20.33
2018-03-14T11:22:56.468Z,20.10
2018-03-14T11:25:23.961Z,21.13
2018-03-14T11:27:51.439Z,18.03
2018-03-14T11:30:18.946Z,19.97
2018-03-14T11:32:46.435Z,17.93
2018-03-14T11:35:13.967Z,19.70
2018-03-14T11:37:41.468Z,18.97
2018-03-14T11:40:08.984Z,16.93
2018-03-14T11:42:36.461Z,17.60
2018-03-14T11:45:03.943Z,16.10
2018-03-14T11:47:31.407Z,16.13
2018-03-14T11:49:58.907Z,15.93
2018-03-14T11:52:26.373Z,16.03
2018-03-14T11:54:53.855Z,18.40
2018-03-14T11:57:21.373Z,15.40
2018-03-14T11:59:48.849Z,14.30
2018-03-14T12:02:16.310Z,18.03
2018-03-14T12:04:43.797Z,15.87
2018-03-14T12:07:11.264Z,14.57
2018-03-14T12:09:38.741Z,14.40
2018-03-14T12:12:06.211Z,15.20
2018-03-14T12:14:33.718Z,15.80
2018-03-14T12:17:01.200Z,15.40
2018-03-14T12:19:28.675Z,13.37
2018-03-14T12:21:56.164Z,14.20
2018-03-14T12:24:23.627Z,15.13
2018-03-14T12:26:51.123Z,13.90
2018-03-14T12:29:18.582Z,13.37
2018-03-14T12:31:46.775Z,12.97
2018-03-14T12:34:14.235Z,14.73
2018-03-14T12:36:41.715Z,15.27
2018-03-14T12:39:09.195Z,13.83
2018-03-14T12:41:36.679Z,12.80
2018-03-14T12:44:04.134Z,11.33
2018-03-14T12:46:31.623Z,12.13
2018-03-14T12:48:59.087Z,12.13
2018-03-14T12:51:26.567Z,12.37
2018-03-14T12:53:54.025Z,10.43
2018-03-14T12:56:21.506Z,11.27
2018-03-14T12:58:48.967Z,11.37
2018-03-14T13:01:16.452Z,11.77
2018-03-14T13:03:43.915Z,9.80
2018-03-14T13:06:11.400Z,9.80
2018-03-14T13:08:38.864Z,10.70
2018-03-14T13:11:06.345Z,9.03
2018-03-14T13:13:33.797Z,9.30
2018-03-14T13:16:01.271Z,10.00
2018-03-14T13:18:28.732Z,8.83
2018-03-14T13:20:56.206Z,10.17
2018-03-14T13:23:23.688Z,8.33
2018-03-14T13:25:51.158Z,9.33
2018-03-14T13:28:18.614Z,7.83
2018-03-14T13:30:46.103Z,9.20
2018-03-14T13:33:13.555Z,10.40
2018-03-14T13:35:41.039Z,8.87
2018-03-14T13:38:08.500Z,9.47
2018-03-14T13:40:36.004Z,8.20
2018-03-14T13:43:03.468Z,7.40
2018-03-14T13:45:30.935Z,8.00
2018-03-14T13:47:58.405Z,6.43
2018-03-14T13:50:25.868Z,8.17
2018-03-14T13:52:53.361Z,6.47
2018-03-14T13:55:20.839Z,8.07
2018-03-14T13:57:48.318Z,7.77
2018-03-14T14:00:15.787Z,10.13
2018-03-14T14:02:43.251Z,7.93
2018-03-14T14:05:10.712Z,7.93
2018-03-14T14:07:38.191Z,9.23
2018-03-14T14:10:05.655Z,8.68
2018-03-14T14:12:33.154Z,7.77
2018-03-14T14:15:00.611Z,7.03
2018-03-14T14:17:28.105Z,6.73
2018-03-14T14:19:55.568Z,7.23
2018-03-14T14:22:23.049Z,7.80
2018-03-14T14:24:50.528Z,7.80
2018-03-14T14:27:18.936Z,6.77
2018-03-14T14:29:46.400Z,7.07
2018-03-14T14:32:13.871Z,7.77
2018-03-14T14:34:41.344Z,8.23
2018-03-14T14:37:08.820Z,7.83
2018-03-14T14:39:36.284Z,8.60
2018-03-14T14:42:03.764Z,7.00
2018-03-14T14:44:31.231Z,7.30
2018-03-14T14:46:59.704Z,8.27
2018-03-14T14:49:27.201Z,9.73
2018-03-14T14:51:54.680Z,7.97
2018-03-14T14:54:22.144Z,9.97
2018-03-14T14:56:49.623Z,7.97
2018-03-14T14:59:17.080Z,6.77
2018-03-14T15:01:44.555Z,7.63
2018-03-14T15:04:12.051Z,7.27
2018-03-14T15:06:39.498Z,8.87
2018-03-14T15:09:06.984Z,8.57
2018-03-14T15:11:34.451Z,8.43
2018-03-14T15:14:01.920Z,7.97
2018-03-14T15:16:29.386Z,8.77
2018-03-14T15:18:56.865Z,8.17
2018-03-14T15:21:24.399Z,7.07
2018-03-14T15:23:51.828Z,7.03
2018-03-14T15:26:19.288Z,6.80
2018-03-14T15:28:47.336Z,7.03
2018-03-14T15:31:14.807Z,7.47
2018-03-14T15:33:42.288Z,7.53
2018-03-14T15:36:09.748Z,8.53
2018-03-14T15:38:37.223Z,6.40
2018-03-14T15:41:04.691Z,9.20
2018-03-14T15:43:32.182Z,7.13
2018-03-14T15:45:59.640Z,7.10
2018-03-14T15:48:27.131Z,7.17
2018-03-14T15:50:54.591Z,7.30
2018-03-14T15:53:22.074Z,7.50
2018-03-14T15:55:49.536Z,6.47
2018-03-14T15:58:17.006Z,6.50
2018-03-14T16:00:44.476Z,7.80
2018-03-14T16:03:11.956Z,7.00
2018-03-14T16:05:39.430Z,7.77
2018-03-14T16:08:07.229Z,7.67
2018-03-14T16:10:34.688Z,8.70
2018-03-14T16:13:02.179Z,6.60
2018-03-14T16:15:29.660Z,7.53
2018-03-14T16:17:57.175Z,9.23
2018-03-14T16:20:24.683Z,7.97
2018-03-14T16:22:52.167Z,8.70
2018-03-14T16:25:19.629Z,8.37
2018-03-14T16:27:47.120Z,6.37
2018-03-14T16:30:14.607Z,7.47
2018-03-14T16:32:42.070Z,7.50
2018-03-14T16:35:09.551Z,8.87
2018-03-14T16:37:37.008Z,8.83
2018-03-14T16:40:04.495Z,7.93
2018-03-14T16:42:31.964Z,9.60
2018-03-14T16:44:59.451Z,9.10
2018-03-14T16:47:26.911Z,8.60
2018-03-14T16:49:54.398Z,11.10
2018-03-14T16:52:21.864Z,8.73
2018-03-14T16:54:49.343Z,8.33
2018-03-14T16:57:16.808Z,8.00
2018-03-14T16:59:44.288Z,8.20
2018-03-14T17:02:11.747Z,8.50
2018-03-14T17:04:39.627Z,7.77
2018-03-14T17:07:07.082Z,8.63
2018-03-14T17:09:34.551Z,9.23
2018-03-14T17:12:02.010Z,7.93
2018-03-14T17:14:30.265Z,8.40
2018-03-14T17:16:57.731Z,9.37
2018-03-14T17:19:25.203Z,9.33
2018-03-14T17:21:52.655Z,7.97
2018-03-14T17:24:20.127Z,7.87
2018-03-14T17:26:47.575Z,8.03
2018-03-14T17:29:15.139Z,9.23
2018-03-14T17:31:42.619Z,9.00
2018-03-14T17:34:10.096Z,8.57
2018-03-14T17:36:37.558Z,9.33
2018-03-14T17:39:05.039Z,7.87
2018-03-14T17:41:32.980Z,10.93
2018-03-14T17:44:00.451Z,7.30
2018-03-14T17:46:27.926Z,9.23
2018-03-14T17:48:55.503Z,9.63
2018-03-14T17:51:22.982Z,8.37
2018-03-14T17:53:50.459Z,9.80
2018-03-14T17:56:17.949Z,10.37
2018-03-14T17:58:45.410Z,8.03
2018-03-14T18:01:12.900Z,6.53
2018-03-14T18:03:40.364Z,7.53
2018-03-14T18:06:07.891Z,8.97
2018-03-14T18:08:35.343Z,7.00
2018-03-14T18:11:02.822Z,8.47
2018-03-14T18:13:30.280Z,9.03
2018-03-14T18:15:57.761Z,8.60
2018-03-14T18:18:25.213Z,6.53
2018-03-14T18:20:52.688Z,9.23
2018-03-14T18:23:20.365Z,7.47
2018-03-14T18:25:47.848Z,8.57
2018-03-14T18:28:15.301Z,6.57
2018-03-14T18:30:42.787Z,8.03
2018-03-14T18:33:10.243Z,7.30
2018-03-14T18:35:37.711Z,8.60
2018-03-14T18:38:05.168Z,10.77
2018-03-14T18:40:32.645Z,6.63
2018-03-14T18:43:00.101Z,7.77
2018-03-14T18:45:27.570Z,6.63
2018-03-14T18:47:55.019Z,7.30
2018-03-14T18:50:22.491Z,7.10
2018-03-14T18:52:49.946Z,9.40
2018-03-14T18:55:17.420Z,5.57
2018-03-14T18:57:44.867Z,6.00
2018-03-14T19:00:12.343Z,6.47
2018-03-14T19:02:39.795Z,6.33
2018-03-14T19:05:07.259Z,5.53
2018-03-14T19:07:34.716Z,9.20
2018-03-14T19:10:02.184Z,5.63
2018-03-14T19:12:29.659Z,5.67
2018-03-14T19:14:57.161Z,5.20
2018-03-14T19:17:24.611Z,5.43
2018-03-14T19:19:52.071Z,5.37
2018-03-14T19:22:19.563Z,5.93
2018-03-14T19:24:47.022Z,6.83
2018-03-14T19:27:14.556Z,7.83
2018-03-14T19:29:42.011Z,6.17
2018-03-14T19:32:09.803Z,5.23
2018-03-14T19:34:37.282Z,7.77
2018-03-14T19:37:04.756Z,5.93
2018-03-14T19:39:32.212Z,7.73
2018-03-14T19:41:59.804Z,6.23
2018-03-14T19:44:27.247Z,7.30
2018-03-14T19:46:54.734Z,7.60
2018-03-14T19:49:22.179Z,5.40
2018-03-14T19:51:49.647Z,8.07
2018-03-14T19:54:17.105Z,8.53
2018-03-14T19:56:45.832Z,7.93
2018-03-14T19:59:13.292Z,5.23
2018-03-14T20:01:40.959Z,6.50
2018-03-14T20:04:14.435Z,6.03
2018-03-14T20:06:41.908Z,9.10
2018-03-14T20:09:14.378Z,5.97
2018-03-14T20:14:48.118Z,6.87
2018-03-14T20:19:53.064Z,6.10
2018-03-14T20:22:27.526Z,9.60
2018-03-14T20:24:54.998Z,9.20
2018-03-14T20:27:25.308Z,9.97
2018-03-14T20:29:53.944Z,6.97
2018-03-14T20:32:24.130Z,7.13
2018-03-14T20:37:32.885Z,8.43
2018-03-14T20:40:00.378Z,8.07
2018-03-14T20:42:29.140Z,6.80
2018-03-14T20:45:01.103Z,7.13
2018-03-14T20:47:29.403Z,7.97
2018-03-14T20:49:59.897Z,8.03
2018-03-14T20:52:29.726Z,8.17
2018-03-14T20:55:01.461Z,7.80
2018-03-14T20:57:28.965Z,6.80
2018-03-14T21:00:00.996Z,7.27
2018-03-14T21:05:03.705Z,7.03
2018-03-14T21:07:32.487Z,12.43
2018-03-14T21:10:05.934Z,9.53
2018-03-14T21:12:33.555Z,9.37
2018-03-14T21:15:01.896Z,9.40
2018-03-14T21:17:33.580Z,10.73
2018-03-14T21:22:36.225Z,10.10
2018-03-14T21:25:04.530Z,10.33
2018-03-14T21:27:33.175Z,7.73
2018-03-14T21:30:03.035Z,9.43
2018-03-14T21:32:35.332Z,7.70
2018-03-14T21:37:37.206Z,13.30
2018-03-14T21:40:04.840Z,10.57
2018-03-14T21:42:32.340Z,10.00
2018-03-14T21:44:59.842Z,10.77
2018-03-14T21:47:27.327Z,10.73
2018-03-14T21:49:54.800Z,9.87
2018-03-14T21:52:22.312Z,12.33
2018-03-14T21:54:49.783Z,11.63
2018-03-14T21:57:18.679Z,11.10
2018-03-14T21:59:46.138Z,12.47
2018-03-14T22:02:13.657Z,12.03
2018-03-14T22:04:41.093Z,12.10
2018-03-14T22:07:08.551Z,12.67
2018-03-14T22:09:36.031Z,14.43
2018-03-14T22:12:03.513Z,14.23
2018-03-14T22:14:31.116Z,13.60
2018-03-14T22:16:58.491Z,12.13
2018-03-14T22:19:25.977Z,15.27
2018-03-14T22:21:53.443Z,17.83
2018-03-14T22:24:20.932Z,16.00
2018-03-14T22:26:48.411Z,16.03
2018-03-14T22:29:15.892Z,16.00
2018-03-14T22:31:43.359Z,16.13
2018-03-14T22:34:10.850Z,17.03
2018-03-14T22:36:38.306Z,19.47
2018-03-14T22:39:05.788Z,18.90
2018-03-14T22:41:33.254Z,17.80
2018-03-14T22:44:00.735Z,17.70
2018-03-14T22:46:28.202Z,19.50
2018-03-14T22:48:55.690Z,20.77
2018-03-14T22:51:23.151Z,20.67
2018-03-14T22:53:50.631Z,24.00
2018-03-14T22:56:18.099Z,21.50
2018-03-14T22:58:45.605Z,20.07
2018-03-14T23:01:13.068Z,21.67
2018-03-14T23:03:40.550Z,21.10
2018-03-14T23:06:08.015Z,22.60
2018-03-14T23:08:35.514Z,26.60
2018-03-14T23:11:02.975Z,22.87
2018-03-14T23:13:30.454Z,21.43
2018-03-14T23:15:57.916Z,23.20
2018-03-14T23:18:25.397Z,24.10
2018-03-14T23:20:52.861Z,22.10
2018-03-14T23:23:20.324Z,24.33
2018-03-14T23:25:47.803Z,20.50
2018-03-14T23:28:15.267Z,21.17
2018-03-14T23:30:42.748Z,20.87
2018-03-14T23:33:10.203Z,21.87
2018-03-14T23:35:37.698Z,22.37
2018-03-14T23:38:05.147Z,22.57
2018-03-14T23:40:32.628Z,23.20
2018-03-14T23:43:00.108Z,25.37
2018-03-14T23:45:27.601Z,22.03
2018-03-14T23:47:55.057Z,22.33
2018-03-14T23:50:22.564Z,24.17
2018-03-14T23:52:50.029Z,20.63
2018-03-14T23:55:17.512Z,23.93
2018-03-14T23:57:44.972Z,21.63
